Terminal Aerodrome Forecast
Issued by NWS

Home | Current Version | Previous Version | Text Only | Print | Product List | Glossary On
Versions: 1 2 3 4 5 6 7 8 9 10 11 12 13 14 15
000
FTUS45 KGJT 241904 AAA
TAFCNY
TAF AMD
KCNY 241904Z 2419/2518 22019KT P6SM OVC110
     FM242000 24014G22KT P6SM OVC150
     FM242300 27019G30KT P6SM OVC110
     FM250300 29013G21KT P6SM BKN130
     FM250500 29009KT P6SM OVC130
     FM250900 29005KT P6SM OVC150=

USA.gov is the U.S. government's official web portal to all federal, state and local government web resources and services.